Time;durP1;ratioP1;P1;durP2;ratioP2;P2;SDS_P1;SDS_P2;PMS_P1;PMS_P2;Temp;Humidity;BMP_temperature;BMP_pressure;BME280_temperature;BME280_humidity;BME280_pressure;Samples;Min_cycle;Max_cycle;Signal;HPM_P1;HPM_P2
2024/02/20 00:02:27;;;;;;;;;;;;;;;17.45;49.23;100667.31;10200509;28;810;-70
2024/02/20 00:07:22;;;;;;;;;;;;;;;17.45;49.43;100668.16;10199884;28;901;-70
2024/02/20 00:12:20;;;;;;;;;;;;;;;17.45;49.30;100669.94;10199343;28;1104;-70
2024/02/20 00:17:16;;;;;;;;;;;;;;;17.44;49.44;100669.06;10199307;28;1906;-70
2024/02/20 00:22:12;;;;;;;;;;;;;;;17.43;49.24;100663.84;10199745;28;805;-70
2024/02/20 00:27:08;;;;;;;;;;;;;;;17.41;49.33;100671.78;10199749;28;893;-70
2024/02/20 00:32:04;;;;;;;;;;;;;;;17.40;49.38;100675.34;10199435;28;1479;-70
2024/02/20 00:37:00;;;;;;;;;;;;;;;17.41;49.32;100666.50;10198666;28;1981;-70
2024/02/20 00:41:56;;;;;;;;;;;;;;;17.41;49.51;100676.19;10199864;28;857;-70
2024/02/20 00:46:52;;;;;;;;;;;;;;;17.40;49.36;100669.22;10197886;28;1170;-70
2024/02/20 00:51:48;;;;;;;;;;;;;;;17.39;49.37;100672.72;10199032;28;879;-70
2024/02/20 00:56:46;;;;;;;;;;;;;;;17.38;49.35;100678.91;10198799;28;1959;-70
2024/02/20 01:01:42;;;;;;;;;;;;;;;17.38;49.37;100686.81;10197546;28;873;-70
2024/02/20 01:06:39;;;;;;;;;;;;;;;17.38;49.42;100697.38;10198552;28;802;-70
2024/02/20 01:11:35;;;;;;;;;;;;;;;17.37;49.38;100685.06;10197237;28;1554;-70
2024/02/20 01:16:31;;;;;;;;;;;;;;;17.35;49.43;100687.78;10197724;28;1890;-70
2024/02/20 01:21:27;;;;;;;;;;;;;;;17.35;49.42;100689.53;10197659;28;790;-70
2024/02/20 01:26:22;;;;;;;;;;;;;;;17.35;49.21;100693.03;10204748;28;1043;-70
2024/02/20 01:31:18;;;;;;;;;;;;;;;17.35;49.29;100697.44;10204095;28;1304;-70
2024/02/20 01:36:14;;;;;;;;;;;;;;;17.34;49.38;100703.59;10204665;28;1973;-70
2024/02/20 01:41:10;;;;;;;;;;;;;;;17.33;49.44;100699.25;10205368;28;806;-70
2024/02/20 01:46:07;;;;;;;;;;;;;;;17.31;49.33;100700.13;10204688;28;868;-70
2024/02/20 01:51:03;;;;;;;;;;;;;;;17.33;49.23;100717.69;10204602;28;785;-70
2024/02/20 01:56:00;;;;;;;;;;;;;;;17.33;49.31;100717.69;10203804;28;1953;-70
2024/02/20 02:00:56;;;;;;;;;;;;;;;17.31;49.21;100721.22;10204017;28;778;-70
2024/02/20 02:05:52;;;;;;;;;;;;;;;17.30;49.30;100718.66;10202984;28;905;-70
2024/02/20 02:10:48;;;;;;;;;;;;;;;17.29;49.26;100715.16;10203370;28;1230;-70
2024/02/20 02:15:44;;;;;;;;;;;;;;;17.30;49.36;100721.28;10203278;28;834;-70
2024/02/20 02:20:40;;;;;;;;;;;;;;;17.29;49.12;100725.69;10203068;28;814;-70
2024/02/20 02:25:35;;;;;;;;;;;;;;;17.28;49.10;100729.22;10203496;28;838;-70
2024/02/20 02:30:31;;;;;;;;;;;;;;;17.27;49.05;100722.22;10202593;28;1519;-70
2024/02/20 02:35:27;;;;;;;;;;;;;;;17.26;49.21;100720.47;10202561;28;923;-70
2024/02/20 02:40:23;;;;;;;;;;;;;;;17.28;49.15;100726.56;10202377;28;1975;-70
2024/02/20 02:45:19;;;;;;;;;;;;;;;17.26;49.17;100725.75;10203482;28;1000;-70
2024/02/20 02:50:15;;;;;;;;;;;;;;;17.26;49.23;100728.38;10202187;28;877;-70
2024/02/20 02:55:11;;;;;;;;;;;;;;;17.25;49.00;100729.28;10202530;28;825;-70
2024/02/20 03:00:09;;;;;;;;;;;;;;;17.24;49.07;100732.84;10201706;28;1957;-70
2024/02/20 03:05:05;;;;;;;;;;;;;;;17.26;49.01;100732.78;10201669;28;1283;-70
2024/02/20 03:10:02;;;;;;;;;;;;;;;17.24;49.00;100740.75;10202003;28;866;-70
2024/02/20 03:14:58;;;;;;;;;;;;;;;17.23;49.07;100735.50;10201246;28;1245;-70
2024/02/20 03:19:56;;;;;;;;;;;;;;;17.22;49.23;100744.31;10201806;28;1957;-70
2024/02/20 03:24:52;;;;;;;;;;;;;;;17.23;49.09;100756.59;10201136;28;854;-70
2024/02/20 03:29:48;;;;;;;;;;;;;;;17.22;49.18;100760.13;10201329;28;1080;-70
2024/02/20 03:34:44;;;;;;;;;;;;;;;17.21;48.97;100754.00;10200851;28;948;-70
2024/02/20 03:39:40;;;;;;;;;;;;;;;17.21;49.13;100761.00;10200179;28;1910;-70
2024/02/20 03:44:36;;;;;;;;;;;;;;;17.20;49.05;100767.19;10200558;28;820;-70
2024/02/20 03:49:31;;;;;;;;;;;;;;;17.20;49.00;100762.78;10199826;28;779;-70
2024/02/20 03:54:27;;;;;;;;;;;;;;;17.20;49.11;100773.34;10200187;28;836;-70
2024/02/20 03:59:23;;;;;;;;;;;;;;;17.19;49.12;100774.25;10200838;28;1895;-70
2024/02/20 04:04:20;;;;;;;;;;;;;;;17.17;49.05;100778.69;10199309;28;917;-70
2024/02/20 04:09:15;;;;;;;;;;;;;;;17.18;49.05;100780.41;10200079;28;845;-70
2024/02/20 04:14:11;;;;;;;;;;;;;;;17.17;48.85;100776.03;10199767;28;908;-70
2024/02/20 04:19:07;;;;;;;;;;;;;;;17.17;48.85;100781.31;10199345;28;1948;-70
2024/02/20 04:24:03;;;;;;;;;;;;;;;17.17;48.93;100794.50;10199312;28;765;-70
2024/02/20 04:29:00;;;;;;;;;;;;;;;17.17;48.98;100791.00;10199549;28;1143;-70
2024/02/20 04:33:55;;;;;;;;;;;;;;;17.16;49.07;100791.88;10199810;28;940;-70
2024/02/20 04:38:56;;;;;;;;;;;;;;;17.15;48.86;100796.28;10198341;28;1969;-70
2024/02/20 04:43:52;;;;;;;;;;;;;;;17.16;48.75;100798.03;10199254;28;810;-70
2024/02/20 04:48:48;;;;;;;;;;;;;;;17.16;48.88;100800.66;10198533;28;948;-70
2024/02/20 04:53:44;;;;;;;;;;;;;;;17.18;49.01;100796.22;10199218;28;993;-70
2024/02/20 04:58:39;;;;;;;;;;;;;;;17.17;48.93;100791.84;10197211;28;1894;-70
2024/02/20 05:03:35;;;;;;;;;;;;;;;17.19;48.92;100792.69;10198194;28;884;-70
2024/02/20 05:08:31;;;;;;;;;;;;;;;17.20;48.88;100788.28;10198454;28;815;-70
2024/02/20 05:13:27;;;;;;;;;;;;;;;17.20;49.00;100791.78;10198785;28;855;-70
2024/02/20 05:18:23;;;;;;;;;;;;;;;17.22;48.89;100789.13;10198280;28;1945;-70
2024/02/20 05:23:19;;;;;;;;;;;;;;;17.23;48.75;100796.09;10197709;28;885;-70
2024/02/20 05:28:15;;;;;;;;;;;;;;;17.23;48.81;100783.78;10197433;28;1084;-70
2024/02/20 05:33:11;;;;;;;;;;;;;;;17.25;48.85;100795.16;10198226;28;834;-71
2024/02/20 05:38:07;;;;;;;;;;;;;;;17.27;48.70;100790.72;10197253;28;1914;-71
2024/02/20 05:43:03;;;;;;;;;;;;;;;17.29;48.71;100788.03;10197955;28;841;-70
2024/02/20 05:47:58;;;;;;;;;;;;;;;17.30;48.94;100785.38;10196493;28;896;-71
2024/02/20 05:52:55;;;;;;;;;;;;;;;17.33;48.92;100778.31;10197546;28;810;-70
2024/02/20 05:57:51;;;;;;;;;;;;;;;17.33;48.79;100776.53;10196811;28;1898;-71
2024/02/20 06:02:47;;;;;;;;;;;;;;;17.34;49.00;100780.88;10197331;28;972;-71
2024/02/20 06:07:43;;;;;;;;;;;;;;;17.35;48.83;100784.41;10196612;28;768;-71
2024/02/20 06:12:39;;;;;;;;;;;;;;;17.36;48.72;100796.69;10202028;28;909;-70
2024/02/20 06:17:35;;;;;;;;;;;;;;;17.37;48.92;100791.38;10203162;28;1898;-71
2024/02/20 06:22:32;;;;;;;;;;;;;;;17.40;48.87;100806.25;10203179;28;953;-71
2024/02/20 06:27:28;;;;;;;;;;;;;;;17.40;49.00;100807.09;10202845;28;885;-71
2024/02/20 06:32:24;;;;;;;;;;;;;;;17.41;48.90;100802.69;10203105;28;1312;-70
2024/02/20 06:37:20;;;;;;;;;;;;;;;17.43;48.60;100806.16;10202526;28;1914;-70
2024/02/20 06:42:15;;;;;;;;;;;;;;;17.43;48.92;100809.66;10201697;28;897;-71
2024/02/20 06:47:11;;;;;;;;;;;;;;;17.43;48.74;100817.56;10202868;28;807;-70
2024/02/20 06:52:07;;;;;;;;;;;;;;;17.44;48.81;100815.78;10202272;28;862;-70
2024/02/20 06:57:03;;;;;;;;;;;;;;;17.44;48.79;100824.56;10201946;28;1960;-69
2024/02/20 07:01:59;;;;;;;;;;;;;;;17.44;48.68;100823.69;10201817;28;773;-69
2024/02/20 07:06:55;;;;;;;;;;;;;;;17.43;48.92;100825.47;10202297;28;799;-69
2024/02/20 07:11:51;;;;;;;;;;;;;;;17.42;48.66;100821.13;10201712;28;802;-69
2024/02/20 07:16:46;;;;;;;;;;;;;;;17.41;48.79;100829.06;10201335;28;1898;-69
2024/02/20 07:21:42;;;;;;;;;;;;;;;17.39;48.76;100820.31;10199732;28;960;-69
2024/02/20 07:26:38;;;;;;;;;;;;;;;17.38;48.81;100824.72;10201688;28;881;-70
2024/02/20 07:31:34;;;;;;;;;;;;;;;17.36;48.77;100823.03;10200581;28;1211;-69
2024/02/20 07:36:30;;;;;;;;;;;;;;;17.37;48.96;100819.47;10200869;28;1918;-74
2024/02/20 07:41:26;;;;;;;;;;;;;;;17.36;48.89;100821.25;10200218;28;1115;-70
2024/02/20 07:46:22;;;;;;;;;;;;;;;17.36;48.98;100817.75;10200488;28;792;-70
2024/02/20 07:51:19;;;;;;;;;;;;;;;17.36;48.77;100825.66;10197974;28;1104;-70
2024/02/20 07:56:15;;;;;;;;;;;;;;;17.37;48.84;100814.22;10199122;28;1902;-70
2024/02/20 08:01:11;;;;;;;;;;;;;;;17.36;49.01;100821.25;10199660;28;853;-70
2024/02/20 08:06:07;;;;;;;;;;;;;;;17.38;48.86;100821.22;10199853;28;893;-70
2024/02/20 08:11:03;;;;;;;;;;;;;;;17.39;49.00;100828.22;10199760;28;758;-72
2024/02/20 08:15:59;;;;;;;;;;;;;;;17.39;48.96;100826.44;10198999;28;1898;-69
2024/02/20 08:20:55;;;;;;;;;;;;;;;17.40;48.89;100832.59;10199240;28;822;-70
2024/02/20 08:25:51;;;;;;;;;;;;;;;17.42;48.82;100841.31;10198691;28;770;-70
2024/02/20 08:30:47;;;;;;;;;;;;;;;17.43;48.92;100840.44;10198962;28;1168;-70
2024/02/20 08:35:43;;;;;;;;;;;;;;;17.41;48.91;100843.09;10198251;28;1073;-70
2024/02/20 08:40:39;;;;;;;;;;;;;;;17.44;48.88;100836.88;10198280;28;1932;-69
2024/02/20 08:45:35;;;;;;;;;;;;;;;17.44;48.85;100843.00;10198087;28;907;-70
2024/02/20 08:50:30;;;;;;;;;;;;;;;17.44;48.80;100843.00;10197713;28;1015;-72
2024/02/20 08:55:26;;;;;;;;;;;;;;;17.45;48.71;100833.38;10198151;28;806;-71
2024/02/20 09:00:23;;;;;;;;;;;;;;;17.47;48.73;100836.81;10197958;28;1918;-70
2024/02/20 09:05:19;;;;;;;;;;;18.20;51.20;;;17.46;48.84;100832.44;10197946;28;850;-70
2024/02/20 09:10:14;;;;;;;;;;;18.20;51.70;;;17.48;48.64;100834.13;10199048;28;850;-70
2024/02/20 09:15:09;;;;;;;;;;;18.20;51.80;;;17.49;48.77;100848.19;10197359;28;864;-70
2024/02/20 09:20:06;;;;;;;;;;;18.30;51.60;;;17.48;48.75;100847.31;10197443;28;1895;-70
2024/02/20 09:25:02;;;;;;;;;;;18.30;51.60;;;17.48;48.70;100847.31;10197190;28;771;-70
2024/02/20 09:29:57;;;;;;;;;;;18.20;51.60;;;17.51;48.48;100843.75;10197574;28;1224;-77
2024/02/20 09:34:52;;;;;;;;;;;18.20;51.50;;;17.50;48.79;100850.78;10196724;28;739;-74
2024/02/20 09:39:48;;;;;;;;;;;18.30;51.60;;;17.50;48.55;100842.00;10197109;28;1911;-74
2024/02/20 09:44:43;;;;;;;;;;;18.20;51.70;;;17.51;48.60;100846.38;10198154;28;968;-70
2024/02/20 09:49:39;;;;;;;;;;;18.20;51.60;;;17.51;48.73;100843.75;10203977;28;842;-70
2024/02/20 09:54:34;;;;;;;;;;;18.30;51.70;;;17.53;48.59;100844.56;10203256;28;1159;-82
2024/02/20 09:59:29;;;;;;;;;;;18.30;51.70;;;17.52;48.61;100838.41;10204351;28;1907;-75
2024/02/20 10:04:28;;;;;;;;;;;18.30;51.90;;;17.53;48.68;100839.31;10203071;28;957;-76
2024/02/20 10:09:23;;;;;;;;;;;18.30;51.60;;;17.52;48.54;100840.19;10203449;28;855;-76
2024/02/20 10:14:18;;;;;;;;;;;18.30;51.70;;;17.53;48.45;100839.31;10203367;28;786;-80
2024/02/20 10:19:14;;;;;;;;;;;18.30;51.70;;;17.53;48.74;100829.63;10203387;28;1945;-76
2024/02/20 10:24:09;;;;;;;;;;;18.30;51.70;;;17.55;48.61;100832.19;10201802;28;857;-84
2024/02/20 10:29:05;;;;;;;;;;;18.20;52.40;;;17.58;48.49;100836.53;10202627;28;1349;-73
2024/02/20 10:34:00;;;;;;;;;;;18.30;51.80;;;17.58;48.67;100834.78;10202851;28;1016;-78
2024/02/20 10:38:56;;;;;;;;;;;18.30;51.80;;;17.58;48.53;100834.78;10202307;28;1998;-76
2024/02/20 10:43:51;;;;;;;;;;;18.30;51.60;;;17.58;48.33;100825.97;10202006;28;927;-76
2024/02/20 10:48:46;;;;;;;;;;;18.30;51.60;;;17.59;48.34;100825.09;10201831;28;968;-76
2024/02/20 10:53:42;;;;;;;;;;;18.30;51.50;;;17.58;48.52;100825.97;10201650;28;852;-77
2024/02/20 10:58:40;;;;;;;;;;;18.30;51.40;;;17.58;48.31;100824.25;10200806;28;1911;-77
2024/02/20 11:03:35;;;;;;;;;;;18.30;51.40;;;17.58;48.23;100832.16;10201466;28;849;-82
2024/02/20 11:08:31;;;;;;;;;;;18.30;51.40;;;17.59;48.53;100822.47;10201411;28;896;-79
2024/02/20 11:13:27;;;;;;;;;;;18.30;51.50;;;17.60;48.29;100813.63;10201215;28;851;-86
2024/02/20 11:18:24;;;;;;;;;;;18.30;51.60;;;17.60;48.55;100803.09;10200812;28;1964;-77
2024/02/20 11:23:19;;;;;;;;;;;18.30;52.10;;;17.61;48.62;100804.84;10200941;28;797;-74
2024/02/20 11:28:15;;;;;;;;;;;18.30;51.70;;;17.60;48.45;100790.78;10198767;28;1271;-74
2024/02/20 11:33:10;;;;;;;;;;;18.40;51.50;;;17.60;48.38;100782.84;10201366;28;802;-75
2024/02/20 11:38:09;;;;;;;;;;;18.40;51.40;;;17.61;48.41;100776.69;10200672;28;1997;-74
2024/02/20 11:43:05;;;;;;;;;;;18.40;51.30;;;17.62;48.21;100767.00;10200602;28;893;-74
2024/02/20 11:48:00;;;;;;;;;;;18.30;51.30;;;17.62;48.48;100765.25;10200102;28;901;-76
2024/02/20 11:52:56;;;;;;;;;;;18.40;51.50;;;17.62;48.29;100759.09;10200710;28;790;-82
2024/02/20 11:57:51;;;;;;;;;;;18.30;51.80;;;17.61;48.21;100763.53;10200194;28;1902;-80
2024/02/20 12:02:46;;;;;;;;;;;18.40;51.40;;;17.60;48.17;100751.22;10201041;28;876;-82
2024/02/20 12:07:42;;;;;;;;;;;18.30;51.10;;;17.60;48.06;100738.03;10199077;28;943;-81
2024/02/20 12:12:38;;;;;;;;;;;18.40;51.10;;;17.60;48.22;100730.13;10199523;28;876;-75
2024/02/20 12:17:33;;;;;;;;;;;18.30;50.90;;;17.62;48.25;100727.47;10195880;28;1898;-74
2024/02/20 12:22:28;;;;;;;;;;;18.40;51.30;;;17.61;48.21;100723.97;10199555;28;842;-73
2024/02/20 12:27:24;;;;;;;;;;;18.40;51.00;;;17.62;48.16;100722.19;10158633;28;1856;-76
2024/02/20 12:32:19;;;;;;;;;;;18.40;50.60;;;17.61;48.00;100726.63;10149407;28;1544;-74
2024/02/20 12:37:14;;;;;;;;;;;18.40;50.80;;;17.62;48.06;100733.59;10122603;28;1981;-74
2024/02/20 12:42:10;;;;;;;;;;;18.30;50.60;;;17.61;47.91;100729.25;10119889;28;878;-74
2024/02/20 12:47:06;;;;;;;;;;;18.40;50.70;;;17.62;47.96;100744.16;10119130;28;803;-76
2024/02/20 12:52:02;;;;;;;;;;;18.40;50.90;;;17.65;47.88;100732.66;10119020;28;990;-74
2024/02/20 12:56:58;;;;;;;;;;;18.40;51.00;;;17.63;48.02;100735.34;10119215;28;1974;-74
2024/02/20 13:01:54;;;;;;;;;;;18.40;51.00;;;17.63;47.99;100727.44;10118871;28;833;-77
2024/02/20 13:06:49;;;;;;;;;;;18.40;51.10;;;17.64;48.11;100723.88;10119262;28;776;-73
2024/02/20 13:11:44;;;;;;;;;;;18.40;51.10;;;17.64;48.04;100712.47;10118653;28;759;-73
2024/02/20 13:16:44;;;;;;;;;;;18.40;51.00;;;17.64;48.06;100710.69;10119009;28;1919;-74
2024/02/20 13:21:43;;;;;;;;;;;18.40;51.10;;;17.64;48.12;100705.44;10124089;28;846;-72
2024/02/20 13:26:38;;;;;;;;;;;18.40;51.10;;;17.64;48.04;100705.44;10125442;28;990;-74
2024/02/20 13:31:33;;;;;;;;;;;18.40;51.10;;;17.64;48.11;100694.03;10125753;28;1303;-74
2024/02/20 13:36:29;;;;;;;;;;;18.40;51.10;;;17.65;47.98;100677.28;10125096;28;1971;-75
2024/02/20 13:41:28;;;;;;;;;;;18.40;51.10;;;17.64;47.98;100663.25;10125653;28;867;-71
2024/02/20 13:46:23;;;;;;;;;;;18.40;51.20;;;17.65;48.03;100653.56;10125472;28;853;-74
2024/02/20 13:51:19;;;;;;;;;;;18.40;51.10;;;17.65;48.01;100643.00;10124843;28;755;-73
2024/02/20 13:56:19;;;;;;;;;;;18.40;51.20;;;17.64;48.26;100647.44;10124485;28;1918;-73
2024/02/20 14:01:14;;;;;;;;;;;18.40;51.20;;;17.65;48.15;100643.00;10124767;28;867;-76
2024/02/20 14:06:10;;;;;;;;;;;18.40;51.30;;;17.66;48.29;100628.94;10124856;28;806;-74
2024/02/20 14:11:10;;;;;;;;;;;18.40;51.20;;;17.66;48.09;100637.72;10124452;28;991;-74
2024/02/20 14:16:05;;;;;;;;;;;18.40;51.20;;;17.66;48.07;100636.84;10123713;28;1006;-73
2024/02/20 14:21:00;;;;;;;;;;;18.40;51.20;;;17.66;48.30;100640.34;10123805;28;1903;-73
2024/02/20 14:25:56;;;;;;;;;;;18.40;51.30;;;17.66;48.10;100635.06;10124600;28;787;-73
2024/02/20 14:30:52;;;;;;;;;;;18.40;51.10;;;17.65;48.18;100632.47;10123723;28;1105;-72
2024/02/20 14:35:47;;;;;;;;;;;18.40;50.80;;;17.64;48.08;100628.97;10124283;28;885;-72
2024/02/20 14:40:48;;;;;;;;;;;18.40;50.90;;;17.63;48.09;100631.63;10122880;28;1962;-72
2024/02/20 14:45:45;;;;;;;;;;;18.40;50.60;;;17.62;47.76;100630.78;10122914;28;909;-72
2024/02/20 14:50:41;;;;;;;;;;;18.40;50.70;;;17.62;47.73;100625.50;10122717;28;758;-72
2024/02/20 14:55:36;;;;;;;;;;;18.30;50.70;;;17.62;47.70;100622.88;10123404;28;869;-72
2024/02/20 15:00:31;;;;;;;;;;;18.40;50.60;;;17.62;47.89;100616.75;10122916;28;1962;-72
2024/02/20 15:05:27;;;;;;;;;;;18.40;50.30;;;17.61;47.69;100600.06;10122873;28;790;-72
2024/02/20 15:10:23;;;;;;;;;;;18.30;50.30;;;17.61;47.50;100594.78;10122316;28;866;-73
2024/02/20 15:15:19;;;;;;;;;;;18.40;50.20;;;17.61;47.45;100599.22;10121961;28;909;-72
2024/02/20 15:20:14;;;;;;;;;;;18.40;50.00;;;17.59;47.37;100591.34;10122310;28;1966;-74
2024/02/20 15:25:15;;;;;;;;;;;18.40;50.20;;;17.61;47.64;100597.44;10122227;28;834;-74
2024/02/20 15:30:10;;;;;;;;;;;18.40;50.30;;;17.61;47.62;100586.88;10121731;28;1401;-73
2024/02/20 15:35:06;;;;;;;;;;;18.40;50.40;;;17.63;47.43;100581.56;10121375;28;799;-74
2024/02/20 15:40:01;;;;;;;;;;;18.40;50.30;;;17.63;47.52;100576.28;10120717;28;1907;-73
2024/02/20 15:44:57;;;;;;;;;;;18.40;50.30;;;17.60;47.45;100571.97;10193870;28;1116;-73
2024/02/20 15:49:52;;;;;;;;;;;18.40;50.20;;;17.60;47.64;100563.19;10200432;28;782;-75
2024/02/20 15:54:49;;;;;;;;;;;18.40;50.20;;;17.60;47.72;100568.47;10200611;28;829;-73
2024/02/20 15:59:44;;;;;;;;;;;18.50;50.00;;;17.58;47.65;100568.53;10199736;28;1955;-73
2024/02/20 16:04:40;;;;;;;;;;;18.40;50.30;;;17.58;47.73;100567.63;10199792;28;803;-73
2024/02/20 16:09:35;;;;;;;;;;;18.40;50.30;;;17.57;47.75;100561.50;10199664;28;776;-73
2024/02/20 16:14:30;;;;;;;;;;;18.30;50.60;;;17.57;47.58;100550.09;10199977;28;826;-73
2024/02/20 16:19:26;;;;;;;;;;;18.40;50.60;;;17.56;47.88;100554.53;10200128;28;1899;-73
2024/02/20 16:24:21;;;;;;;;;;;18.40;50.70;;;17.55;47.69;100549.28;10199186;28;774;-72
2024/02/20 16:29:17;;;;;;;;;;;18.30;50.70;;;17.55;47.91;100549.28;10199213;28;1144;-72
2024/02/20 16:34:16;;;;;;;;;;;18.30;50.80;;;17.56;47.79;100554.53;10198774;28;971;-73
2024/02/20 16:39:11;;;;;;;;;;;18.30;50.70;;;17.55;47.74;100552.78;10198701;28;1910;-73
2024/02/20 16:44:09;;;;;;;;;;;18.40;50.70;;;17.57;47.59;100556.25;10199152;28;777;-73
2024/02/20 16:49:04;;;;;;;;;;;18.40;50.80;;;17.57;47.71;100556.25;10198376;28;777;-71
2024/02/20 16:54:00;;;;;;;;;;;18.30;50.80;;;17.57;47.72;100548.31;10199362;28;1530;-78
2024/02/20 16:58:56;;;;;;;;;;;18.30;51.00;;;17.58;47.98;100555.34;10198742;28;1906;-71
2024/02/20 17:03:51;;;;;;;;;;;18.40;51.00;;;17.59;48.07;100558.84;10198052;28;805;-69
2024/02/20 17:08:46;;;;;;;;;;;18.40;50.80;;;17.61;47.94;100570.22;10198463;28;873;-70
2024/02/20 17:13:42;;;;;;;;;;;18.40;51.20;;;17.61;48.07;100563.16;10198441;28;863;-71
2024/02/20 17:18:37;;;;;;;;;;;18.40;51.10;;;17.61;48.05;100560.53;10198156;28;1906;-69
2024/02/20 17:23:33;;;;;;;;;;;18.40;51.00;;;17.64;47.88;100559.56;10197520;28;804;-71
2024/02/20 17:28:28;;;;;;;;;;;18.40;51.10;;;17.63;47.93;100549.91;10197660;28;1064;-71
2024/02/20 17:33:23;;;;;;;;;;;18.50;51.10;;;17.64;47.92;100560.44;10196653;28;881;-70
2024/02/20 17:38:19;;;;;;;;;;;18.50;51.00;;;17.64;48.08;100568.34;10197575;28;1894;-70
2024/02/20 17:43:16;;;;;;;;;;;18.50;51.00;;;17.66;47.96;100563.88;10197001;28;1157;-70
2024/02/20 17:48:12;;;;;;;;;;;18.50;51.00;;;17.66;47.87;100569.16;10197462;28;871;-70
2024/02/20 17:53:07;;;;;;;;;;;18.50;50.80;;;17.66;48.03;100577.06;10198062;28;830;-70
2024/02/20 17:58:02;;;;;;;;;;;18.50;50.90;;;17.66;47.80;100558.63;10196012;28;1906;-70
2024/02/20 18:02:58;;;;;;;;;;;18.50;50.90;;;17.67;47.95;100562.09;10196558;28;897;-70
2024/02/20 18:07:53;;;;;;;;;;;18.50;50.80;;;17.68;47.90;100558.56;10202223;28;797;-70
2024/02/20 18:12:49;;;;;;;;;;;18.50;50.80;;;17.69;48.01;100560.31;10202664;28;905;-70
2024/02/20 18:17:46;;;;;;;;;;;18.50;50.80;;;17.69;47.74;100549.75;10202976;28;1902;-71
2024/02/20 18:22:41;;;;;;;;;;;18.50;50.80;;;17.68;47.73;100548.91;10202955;28;902;-71
2024/02/20 18:27:39;;;;;;;;;;;18.50;50.80;;;17.68;47.76;100543.63;10202796;28;880;-70
2024/02/20 18:32:35;;;;;;;;;;;18.50;50.70;;;17.70;47.86;100531.22;10203817;28;1188;-71
2024/02/20 18:37:30;;;;;;;;;;;18.50;50.80;;;17.69;47.87;100542.69;10202476;28;1965;-70
2024/02/20 18:42:25;;;;;;;;;;;18.50;50.70;;;17.70;47.70;100540.91;10202992;28;810;-70
2024/02/20 18:47:21;;;;;;;;;;;18.50;50.60;;;17.71;47.62;100532.97;10202781;28;889;-70
2024/02/20 18:52:18;;;;;;;;;;;18.50;50.60;;;17.70;47.72;100533.00;10202657;28;810;-70
2024/02/20 18:57:13;;;;;;;;;;;18.50;50.50;;;17.70;47.78;100539.13;10202321;28;1902;-70
2024/02/20 19:02:09;;;;;;;;;;;18.50;50.50;;;17.71;47.58;100542.63;10202303;28;776;-70
2024/02/20 19:07:04;;;;;;;;;;;18.60;50.30;;;17.73;47.77;100561.91;10201543;28;1643;-70
2024/02/20 19:12:00;;;;;;;;;;;18.50;50.40;;;17.72;47.58;100545.25;10202023;28;932;-70
2024/02/20 19:16:55;;;;;;;;;;;18.50;50.40;;;17.72;47.59;100549.66;10200648;28;1894;-70
2024/02/20 19:21:50;;;;;;;;;;;18.60;50.50;;;17.74;47.48;100534.66;10201091;28;1731;-70
2024/02/20 19:26:46;;;;;;;;;;;18.60;50.50;;;17.73;47.71;100535.56;10200379;28;901;-70
2024/02/20 19:31:41;;;;;;;;;;;18.60;50.50;;;17.74;47.61;100532.88;10201075;28;1068;-71
2024/02/20 19:36:37;;;;;;;;;;;18.50;50.40;;;17.75;47.42;100541.66;10200691;28;1906;-70
2024/02/20 19:41:35;;;;;;;;;;;18.60;50.40;;;17.74;47.46;100551.34;10199269;28;812;-71
2024/02/20 19:46:30;;;;;;;;;;;18.60;50.50;;;17.75;47.63;100550.41;10200431;28;849;-70
2024/02/20 19:51:25;;;;;;;;;;;18.60;50.50;;;17.76;47.48;100548.63;10200176;28;905;-71
2024/02/20 19:56:22;;;;;;;;;;;18.60;50.40;;;17.75;47.75;100545.13;10200065;28;1035;-70
2024/02/20 20:01:18;;;;;;;;;;;18.60;50.60;;;17.77;47.56;100545.09;10199911;28;924;-71
2024/02/20 20:06:14;;;;;;;;;;;18.60;50.50;;;17.78;47.54;100527.50;10200325;28;841;-71
2024/02/20 20:11:10;;;;;;;;;;;18.60;50.50;;;17.78;47.73;100523.09;10199513;28;909;-70
2024/02/20 20:16:05;;;;;;;;;;;18.60;50.40;;;17.78;47.58;100515.19;10199485;28;793;-70
2024/02/20 20:21:01;;;;;;;;;;;18.60;50.50;;;17.79;47.42;100510.75;10199332;28;1980;-70
2024/02/20 20:25:56;;;;;;;;;;;18.60;50.30;;;17.79;47.35;100511.69;10199794;28;818;-71
2024/02/20 20:30:51;;;;;;;;;;;18.60;50.20;;;17.78;47.37;100512.53;10198704;28;1207;-70
2024/02/20 20:35:47;;;;;;;;;;;18.60;50.30;;;17.78;47.55;100507.28;10198892;28;896;-70
2024/02/20 20:40:46;;;;;;;;;;;18.60;50.30;;;17.80;47.37;100504.63;10198691;28;1973;-70
2024/02/20 20:45:41;;;;;;;;;;;18.60;50.40;;;17.79;47.58;100509.03;10198534;28;901;-70
2024/02/20 20:50:37;;;;;;;;;;;18.50;50.20;;;17.78;47.42;100509.03;10199053;28;801;-70
2024/02/20 20:55:32;;;;;;;;;;;18.60;50.20;;;17.76;47.23;100495.91;10198103;28;894;-70
2024/02/20 21:00:27;;;;;;;;;;;18.60;50.20;;;17.75;47.28;100499.47;10198564;28;1911;-70
2024/02/20 21:05:23;;;;;;;;;;;18.50;50.00;;;17.75;47.37;100495.03;10198478;28;782;-71
2024/02/20 21:10:18;;;;;;;;;;;18.50;50.10;;;17.74;47.17;100493.31;10197420;28;944;-70
2024/02/20 21:15:13;;;;;;;;;;;18.50;50.10;;;17.73;47.14;100496.00;10198485;28;869;-71
2024/02/20 21:20:09;;;;;;;;;;;18.50;50.10;;;17.71;47.42;100489.91;10197589;28;1902;-70
2024/02/20 21:25:04;;;;;;;;;;;18.50;50.10;;;17.71;47.15;100488.16;10198298;28;897;-70
2024/02/20 21:30:00;;;;;;;;;;;18.50;50.10;;;17.71;47.35;100485.53;10197175;28;1355;-70
2024/02/20 21:34:55;;;;;;;;;;;18.50;50.00;;;17.70;47.15;100481.13;10197126;28;892;-71
2024/02/20 21:39:51;;;;;;;;;;;18.40;50.00;;;17.69;47.04;100487.34;10197970;28;1910;-71
2024/02/20 21:44:46;;;;;;;;;;;18.40;50.50;;;17.68;46.98;100480.34;10204779;28;874;-71
2024/02/20 21:49:42;;;;;;;;;;;18.40;49.90;;;17.67;46.96;100478.59;10204024;28;953;-70
2024/02/20 21:54:38;;;;;;;;;;;18.40;49.90;;;17.65;47.12;100467.22;10204414;28;931;-70
2024/02/20 21:59:33;;;;;;;;;;;18.40;50.00;;;17.65;47.09;100453.19;10203700;28;1956;-71
2024/02/20 22:04:29;;;;;;;;;;;18.30;49.90;;;17.64;47.14;100438.31;10203530;28;743;-71
2024/02/20 22:09:24;;;;;;;;;;;18.30;49.90;;;17.62;47.00;100434.84;10203447;28;810;-70
2024/02/20 22:14:19;;;;;;;;;;;18.30;49.80;;;17.60;47.15;100434.88;10203344;28;780;-71
2024/02/20 22:19:15;;;;;;;;;;;18.30;49.90;;;17.60;47.17;100428.75;10203108;28;1884;-70
2024/02/20 22:24:10;;;;;;;;;;;18.30;50.00;;;17.57;46.97;100413.91;10203625;28;776;-71
2024/02/20 22:29:06;;;;;;;;;;;18.20;49.80;;;17.56;46.77;100409.53;10202699;28;1143;-70
2024/02/20 22:34:01;;;;;;;;;;;18.20;49.80;;;17.55;46.94;100414.84;10202921;28;960;-73
2024/02/20 22:38:56;;;;;;;;;;;18.20;50.40;;;17.53;46.95;100405.22;10202702;28;1911;-70
2024/02/20 22:43:52;;;;;;;;;;;18.20;50.00;;;17.52;46.80;100402.63;10203487;28;806;-70
2024/02/20 22:48:47;;;;;;;;;;;18.20;50.00;;;17.51;46.79;100414.09;10202510;28;945;-70
2024/02/20 22:53:42;;;;;;;;;;;18.20;49.90;;;17.51;46.97;100414.09;10201587;28;925;-70
2024/02/20 22:58:38;;;;;;;;;;;18.10;49.70;;;17.49;46.89;100410.63;10202689;28;2027;-70
2024/02/20 23:03:33;;;;;;;;;;;18.10;49.80;;;17.46;46.59;100403.69;10201930;28;814;-70
2024/02/20 23:08:29;;;;;;;;;;;18.10;49.70;;;17.46;46.77;100413.38;10201880;28;809;-70
2024/02/20 23:13:24;;;;;;;;;;;18.10;49.90;;;17.45;46.86;100414.31;10202293;28;860;-70
2024/02/20 23:18:20;;;;;;;;;;;18.10;49.90;;;17.44;46.99;100412.56;10200965;28;1906;-70
2024/02/20 23:23:15;;;;;;;;;;;18.10;50.00;;;17.43;46.98;100416.13;10202065;28;845;-70
2024/02/20 23:28:11;;;;;;;;;;;18.10;50.00;;;17.42;46.86;100411.72;10200907;28;1024;-70
2024/02/20 23:33:06;;;;;;;;;;;18.10;50.00;;;17.41;46.99;100405.59;10201152;28;932;-70
2024/02/20 23:38:01;;;;;;;;;;;18.00;50.00;;;17.40;46.93;100398.63;10201599;28;1914;-70